sensor_id;sensor_type;location;lat;lon;timestamp;pressure;altitude;pressure_sealevel;temperature;humidity
69524;BME280;56723;42.694;23.286;2022-10-18T00:00:19;96624.22;;;5.03;85.52
69524;BME280;56723;42.694;23.286;2022-10-18T00:02:45;96617.41;;;5.02;85.12
69524;BME280;56723;42.694;23.286;2022-10-18T00:05:12;96615.78;;;5.01;85.00
69524;BME280;56723;42.694;23.286;2022-10-18T00:07:39;96616.81;;;4.99;85.03
69524;BME280;56723;42.694;23.286;2022-10-18T00:10:07;96617.06;;;4.94;84.54
69524;BME280;56723;42.694;23.286;2022-10-18T00:12:35;96611.28;;;4.91;84.84
69524;BME280;56723;42.694;23.286;2022-10-18T00:15:05;96607.06;;;4.90;84.61
69524;BME280;56723;42.694;23.286;2022-10-18T00:17:37;96616.50;;;4.89;84.65
69524;BME280;56723;42.694;23.286;2022-10-18T00:20:05;96603.94;;;4.84;84.91
69524;BME280;56723;42.694;23.286;2022-10-18T00:22:37;96603.31;;;4.81;85.55
69524;BME280;56723;42.694;23.286;2022-10-18T00:25:05;96591.19;;;4.69;85.81
69524;BME280;56723;42.694;23.286;2022-10-18T00:27:33;96595.41;;;4.70;85.77
69524;BME280;56723;42.694;23.286;2022-10-18T00:30:00;96589.91;;;4.62;85.12
69524;BME280;56723;42.694;23.286;2022-10-18T00:32:27;96587.34;;;4.62;84.99
69524;BME280;56723;42.694;23.286;2022-10-18T00:34:54;96583.97;;;4.61;85.32
69524;BME280;56723;42.694;23.286;2022-10-18T00:37:21;96581.66;;;4.57;85.57
69524;BME280;56723;42.694;23.286;2022-10-18T00:39:48;96587.53;;;4.59;85.92
69524;BME280;56723;42.694;23.286;2022-10-18T00:42:19;96585.88;;;4.58;85.24
69524;BME280;56723;42.694;23.286;2022-10-18T00:47:17;96574.31;;;4.50;85.41
69524;BME280;56723;42.694;23.286;2022-10-18T00:49:49;96584.56;;;4.50;85.29
69524;BME280;56723;42.694;23.286;2022-10-18T00:52:22;96577.94;;;4.46;85.55
69524;BME280;56723;42.694;23.286;2022-10-18T00:54:50;96574.69;;;4.44;85.98
69524;BME280;56723;42.694;23.286;2022-10-18T00:57:18;96566.41;;;4.39;86.05
69524;BME280;56723;42.694;23.286;2022-10-18T00:59:45;96576.69;;;4.39;85.64
69524;BME280;56723;42.694;23.286;2022-10-18T01:02:13;96577.03;;;4.33;86.29
69524;BME280;56723;42.694;23.286;2022-10-18T01:04:45;96569.22;;;4.21;86.67
69524;BME280;56723;42.694;23.286;2022-10-18T01:07:34;96565.00;;;4.20;87.08
69524;BME280;56723;42.694;23.286;2022-10-18T01:10:26;96570.97;;;4.20;87.23
69524;BME280;56723;42.694;23.286;2022-10-18T01:13:18;96564.19;;;4.19;87.30
69524;BME280;56723;42.694;23.286;2022-10-18T01:16:03;96553.09;;;4.18;87.07
69524;BME280;56723;42.694;23.286;2022-10-18T01:18:58;96554.81;;;4.18;87.08
69524;BME280;56723;42.694;23.286;2022-10-18T01:21:49;96562.19;;;4.24;86.73
69524;BME280;56723;42.694;23.286;2022-10-18T01:30:33;96561.69;;;4.17;86.92
69524;BME280;56723;42.694;23.286;2022-10-18T01:35:56;96541.59;;;4.10;86.90
69524;BME280;56723;42.694;23.286;2022-10-18T01:38:25;96535.03;;;4.06;86.88
69524;BME280;56723;42.694;23.286;2022-10-18T01:40:53;96555.00;;;4.15;86.62
69524;BME280;56723;42.694;23.286;2022-10-18T01:43:22;96537.09;;;3.99;87.24
69524;BME280;56723;42.694;23.286;2022-10-18T01:45:51;96539.75;;;3.98;87.57
69524;BME280;56723;42.694;23.286;2022-10-18T01:48:20;96531.69;;;3.90;87.76
69524;BME280;56723;42.694;23.286;2022-10-18T01:50:51;96523.06;;;3.91;87.68
69524;BME280;56723;42.694;23.286;2022-10-18T01:53:30;96526.38;;;3.93;87.42
69524;BME280;56723;42.694;23.286;2022-10-18T01:56:24;96546.13;;;4.06;87.58
69524;BME280;56723;42.694;23.286;2022-10-18T01:59:07;96533.53;;;4.02;87.22
69524;BME280;56723;42.694;23.286;2022-10-18T02:01:42;96544.38;;;4.07;87.25
69524;BME280;56723;42.694;23.286;2022-10-18T02:04:32;96530.81;;;4.05;87.35
69524;BME280;56723;42.694;23.286;2022-10-18T02:07:12;96542.50;;;4.09;87.23
69524;BME280;56723;42.694;23.286;2022-10-18T02:09:49;96528.41;;;4.02;87.17
69524;BME280;56723;42.694;23.286;2022-10-18T02:12:19;96529.16;;;4.04;87.47
69524;BME280;56723;42.694;23.286;2022-10-18T02:14:48;96536.56;;;4.08;87.29
69524;BME280;56723;42.694;23.286;2022-10-18T02:17:17;96530.81;;;4.05;87.04
69524;BME280;56723;42.694;23.286;2022-10-18T02:19:49;96536.94;;;4.02;86.99
69524;BME280;56723;42.694;23.286;2022-10-18T02:22:18;96543.06;;;4.00;87.48
69524;BME280;56723;42.694;23.286;2022-10-18T02:24:50;96510.03;;;3.79;87.18
69524;BME280;56723;42.694;23.286;2022-10-18T02:27:17;96526.72;;;3.87;87.81
69524;BME280;56723;42.694;23.286;2022-10-18T02:29:46;96531.19;;;3.83;87.99
69524;BME280;56723;42.694;23.286;2022-10-18T02:35:35;96526.31;;;3.78;88.33
69524;BME280;56723;42.694;23.286;2022-10-18T02:38:05;96536.50;;;3.80;88.76
69524;BME280;56723;42.694;23.286;2022-10-18T02:40:33;96534.94;;;3.77;88.31
69524;BME280;56723;42.694;23.286;2022-10-18T02:43:00;96534.34;;;3.72;88.40
69524;BME280;56723;42.694;23.286;2022-10-18T02:45:27;96539.94;;;3.65;88.96
69524;BME280;56723;42.694;23.286;2022-10-18T02:47:54;96536.63;;;3.63;89.19
69524;BME280;56723;42.694;23.286;2022-10-18T02:50:21;96535.56;;;3.51;90.00
69524;BME280;56723;42.694;23.286;2022-10-18T02:52:48;96533.72;;;3.53;89.88
69524;BME280;56723;42.694;23.286;2022-10-18T02:55:15;96533.41;;;3.59;89.72
69524;BME280;56723;42.694;23.286;2022-10-18T02:57:42;96540.91;;;3.62;89.79
69524;BME280;56723;42.694;23.286;2022-10-18T03:00:09;96539.34;;;3.60;89.44
69524;BME280;56723;42.694;23.286;2022-10-18T03:02:36;96541.84;;;3.61;89.16
69524;BME280;56723;42.694;23.286;2022-10-18T03:05:03;96540.19;;;3.60;89.59
69524;BME280;56723;42.694;23.286;2022-10-18T03:07:30;96535.31;;;3.56;89.64
69524;BME280;56723;42.694;23.286;2022-10-18T03:09:57;96531.16;;;3.53;89.64
69524;BME280;56723;42.694;23.286;2022-10-18T03:12:24;96526.16;;;3.52;89.80
69524;BME280;56723;42.694;23.286;2022-10-18T03:14:51;96537.22;;;3.52;90.24
69524;BME280;56723;42.694;23.286;2022-10-18T03:17:18;96525.31;;;3.51;89.94
69524;BME280;56723;42.694;23.286;2022-10-18T03:19:44;96526.25;;;3.50;89.55
69524;BME280;56723;42.694;23.286;2022-10-18T03:22:11;96527.31;;;3.46;89.68
69524;BME280;56723;42.694;23.286;2022-10-18T03:24:38;96526.00;;;3.39;90.04
69524;BME280;56723;42.694;23.286;2022-10-18T03:27:05;96541.19;;;3.42;89.91
69524;BME280;56723;42.694;23.286;2022-10-18T03:29:32;96537.97;;;3.38;90.36
69524;BME280;56723;42.694;23.286;2022-10-18T03:31:59;96535.75;;;3.32;90.44
69524;BME280;56723;42.694;23.286;2022-10-18T03:34:25;96530.81;;;3.29;90.99
69524;BME280;56723;42.694;23.286;2022-10-18T03:36:52;96531.63;;;3.30;91.04
69524;BME280;56723;42.694;23.286;2022-10-18T03:39:20;96532.69;;;3.26;91.20
69524;BME280;56723;42.694;23.286;2022-10-18T03:41:47;96525.00;;;3.26;91.07
69524;BME280;56723;42.694;23.286;2022-10-18T03:44:14;96530.97;;;3.26;91.06
69524;BME280;56723;42.694;23.286;2022-10-18T03:46:40;96539.56;;;3.25;91.22
69524;BME280;56723;42.694;23.286;2022-10-18T03:49:07;96539.22;;;3.16;91.76
69524;BME280;56723;42.694;23.286;2022-10-18T03:51:34;96535.75;;;3.17;91.98
69524;BME280;56723;42.694;23.286;2022-10-18T03:54:01;96547.47;;;3.21;91.80
69524;BME280;56723;42.694;23.286;2022-10-18T03:56:28;96545.00;;;3.19;91.22
69524;BME280;56723;42.694;23.286;2022-10-18T03:58:55;96552.97;;;3.15;91.26
69524;BME280;56723;42.694;23.286;2022-10-18T04:01:22;96544.44;;;3.14;91.47
69524;BME280;56723;42.694;23.286;2022-10-18T04:03:49;96538.66;;;3.10;92.07
69524;BME280;56723;42.694;23.286;2022-10-18T04:06:16;96543.19;;;3.05;92.79
69524;BME280;56723;42.694;23.286;2022-10-18T04:08:43;96543.94;;;3.07;95.01
69524;BME280;56723;42.694;23.286;2022-10-18T04:11:10;96527.50;;;2.96;93.13
69524;BME280;56723;42.694;23.286;2022-10-18T04:13:37;96543.94;;;3.07;92.75
69524;BME280;56723;42.694;23.286;2022-10-18T04:16:04;96539.66;;;3.08;92.59
69524;BME280;56723;42.694;23.286;2022-10-18T04:18:31;96524.69;;;3.00;92.54
69524;BME280;56723;42.694;23.286;2022-10-18T04:20:58;96538.81;;;3.07;91.96
69524;BME280;56723;42.694;23.286;2022-10-18T04:23:25;96537.31;;;3.03;91.70
69524;BME280;56723;42.694;23.286;2022-10-18T04:25:52;96547.50;;;3.05;91.98
69524;BME280;56723;42.694;23.286;2022-10-18T04:28:18;96547.41;;;3.06;92.14
69524;BME280;56723;42.694;23.286;2022-10-18T04:30:52;96545.00;;;3.03;92.10
69524;BME280;56723;42.694;23.286;2022-10-18T04:33:19;96536.25;;;3.07;92.11
69524;BME280;56723;42.694;23.286;2022-10-18T04:35:46;96538.06;;;3.05;91.87
69524;BME280;56723;42.694;23.286;2022-10-18T04:38:16;96537.25;;;3.05;92.19
69524;BME280;56723;42.694;23.286;2022-10-18T04:40:43;96542.38;;;3.05;94.28
69524;BME280;56723;42.694;23.286;2022-10-18T04:43:09;96538.16;;;3.04;92.91
69524;BME280;56723;42.694;23.286;2022-10-18T04:45:36;96535.75;;;3.01;93.66
69524;BME280;56723;42.694;23.286;2022-10-18T04:48:03;96538.75;;;3.09;94.52
69524;BME280;56723;42.694;23.286;2022-10-18T04:50:30;96529.72;;;3.02;93.17
69524;BME280;56723;42.694;23.286;2022-10-18T04:52:57;96534.91;;;3.00;93.50
69524;BME280;56723;42.694;23.286;2022-10-18T04:55:24;96525.03;;;2.94;94.10
69524;BME280;56723;42.694;23.286;2022-10-18T04:57:52;96521.72;;;2.92;94.07
69524;BME280;56723;42.694;23.286;2022-10-18T05:00:19;96519.84;;;2.96;93.66
69524;BME280;56723;42.694;23.286;2022-10-18T05:02:46;96525.78;;;2.96;93.94
69524;BME280;56723;42.694;23.286;2022-10-18T05:05:13;96527.81;;;3.05;93.18
69524;BME280;56723;42.694;23.286;2022-10-18T05:07:40;96519.91;;;3.10;92.34
69524;BME280;56723;42.694;23.286;2022-10-18T05:10:15;96530.63;;;3.17;92.65
69524;BME280;56723;42.694;23.286;2022-10-18T05:12:41;96520.28;;;3.18;92.24
69524;BME280;56723;42.694;23.286;2022-10-18T05:15:09;96526.00;;;3.23;92.29
69524;BME280;56723;42.694;23.286;2022-10-18T05:17:36;96510.81;;;3.20;92.12
69524;BME280;56723;42.694;23.286;2022-10-18T05:20:03;96520.88;;;3.23;92.56
69524;BME280;56723;42.694;23.286;2022-10-18T05:22:30;96511.78;;;3.18;93.08
69524;BME280;56723;42.694;23.286;2022-10-18T05:24:57;96516.91;;;3.33;91.92
69524;BME280;56723;42.694;23.286;2022-10-18T05:27:24;96527.47;;;3.43;91.26
69524;BME280;56723;42.694;23.286;2022-10-18T05:29:51;96528.81;;;3.50;90.67
69524;BME280;56723;42.694;23.286;2022-10-18T05:32:18;96533.47;;;3.58;90.28
69524;BME280;56723;42.694;23.286;2022-10-18T05:34:45;96523.72;;;3.64;89.17
69524;BME280;56723;42.694;23.286;2022-10-18T05:37:12;96529.03;;;3.61;88.01
69524;BME280;56723;42.694;23.286;2022-10-18T05:39:39;96537.69;;;3.59;88.19
69524;BME280;56723;42.694;23.286;2022-10-18T05:42:06;96518.56;;;3.50;88.39
69524;BME280;56723;42.694;23.286;2022-10-18T05:44:34;96534.41;;;3.57;88.98
69524;BME280;56723;42.694;23.286;2022-10-18T05:47:01;96531.56;;;3.61;88.74
69524;BME280;56723;42.694;23.286;2022-10-18T05:49:27;96528.94;;;3.63;88.26
69524;BME280;56723;42.694;23.286;2022-10-18T05:51:54;96541.13;;;3.73;88.42
69524;BME280;56723;42.694;23.286;2022-10-18T05:54:21;96530.88;;;3.73;87.40
69524;BME280;56723;42.694;23.286;2022-10-18T05:56:48;96534.84;;;3.79;87.26
69524;BME280;56723;42.694;23.286;2022-10-18T05:59:15;96532.78;;;3.86;87.30
69524;BME280;56723;42.694;23.286;2022-10-18T06:01:42;96533.31;;;3.91;86.78
69524;BME280;56723;42.694;23.286;2022-10-18T06:04:09;96532.16;;;3.96;86.38
69524;BME280;56723;42.694;23.286;2022-10-18T06:06:37;96534.28;;;4.04;85.88
69524;BME280;56723;42.694;23.286;2022-10-18T06:09:06;96532.00;;;4.13;86.64
69524;BME280;56723;42.694;23.286;2022-10-18T06:11:34;96537.97;;;4.28;86.47
69524;BME280;56723;42.694;23.286;2022-10-18T06:14:02;96536.44;;;4.40;85.24
69524;BME280;56723;42.694;23.286;2022-10-18T06:16:29;96528.09;;;4.50;84.53
69524;BME280;56723;42.694;23.286;2022-10-18T06:18:58;96531.69;;;4.62;84.33
69524;BME280;56723;42.694;23.286;2022-10-18T06:21:25;96527.66;;;4.72;83.91
69524;BME280;56723;42.694;23.286;2022-10-18T06:23:55;96528.38;;;4.88;83.72
69524;BME280;56723;42.694;23.286;2022-10-18T06:26:23;96528.66;;;4.98;82.96
69524;BME280;56723;42.694;23.286;2022-10-18T06:28:50;96525.59;;;5.06;82.52
69524;BME280;56723;42.694;23.286;2022-10-18T06:31:18;96527.31;;;5.19;82.06
69524;BME280;56723;42.694;23.286;2022-10-18T06:33:46;96531.50;;;5.35;81.02
69524;BME280;56723;42.694;23.286;2022-10-18T06:36:19;96528.88;;;5.49;80.59
69524;BME280;56723;42.694;23.286;2022-10-18T06:38:48;96528.72;;;5.65;81.29
69524;BME280;56723;42.694;23.286;2022-10-18T06:41:15;96527.09;;;5.76;80.05
69524;BME280;56723;42.694;23.286;2022-10-18T06:43:49;96529.81;;;5.87;79.21
69524;BME280;56723;42.694;23.286;2022-10-18T06:46:18;96526.91;;;5.94;78.46
69524;BME280;56723;42.694;23.286;2022-10-18T06:48:45;96523.59;;;6.04;78.47
69524;BME280;56723;42.694;23.286;2022-10-18T06:51:12;96527.31;;;6.13;77.71
69524;BME280;56723;42.694;23.286;2022-10-18T06:53:40;96515.16;;;6.15;77.34
69524;BME280;56723;42.694;23.286;2022-10-18T06:56:14;96518.78;;;6.25;76.25
69524;BME280;56723;42.694;23.286;2022-10-18T06:58:40;96523.75;;;6.28;76.30
69524;BME280;56723;42.694;23.286;2022-10-18T07:01:10;96518.06;;;6.36;75.74
69524;BME280;56723;42.694;23.286;2022-10-18T07:03:38;96521.50;;;6.49;75.42
69524;BME280;56723;42.694;23.286;2022-10-18T07:06:09;96516.31;;;6.62;75.03
69524;BME280;56723;42.694;23.286;2022-10-18T07:08:37;96519.09;;;6.71;74.44
69524;BME280;56723;42.694;23.286;2022-10-18T07:11:06;96524.00;;;6.87;73.86
69524;BME280;56723;42.694;23.286;2022-10-18T07:13:33;96521.13;;;6.91;73.00
69524;BME280;56723;42.694;23.286;2022-10-18T07:16:09;96508.03;;;6.94;72.56
69524;BME280;56723;42.694;23.286;2022-10-18T07:18:45;96518.53;;;7.04;72.51
69524;BME280;56723;42.694;23.286;2022-10-18T07:21:13;96523.44;;;7.07;72.16
69524;BME280;56723;42.694;23.286;2022-10-18T07:23:43;96509.63;;;7.08;72.42
69524;BME280;56723;42.694;23.286;2022-10-18T07:26:19;96503.44;;;7.11;72.14
69524;BME280;56723;42.694;23.286;2022-10-18T07:28:49;96508.19;;;7.17;71.79
69524;BME280;56723;42.694;23.286;2022-10-18T07:31:17;96495.56;;;7.25;71.75
69524;BME280;56723;42.694;23.286;2022-10-18T07:33:44;96500.47;;;7.41;70.95
69524;BME280;56723;42.694;23.286;2022-10-18T07:36:12;96471.66;;;7.47;76.00
69524;BME280;56723;42.694;23.286;2022-10-18T07:38:39;96507.25;;;8.00;70.56
69524;BME280;56723;42.694;23.286;2022-10-18T07:41:07;96481.28;;;8.15;72.00
69524;BME280;56723;42.694;23.286;2022-10-18T07:43:35;96484.00;;;8.36;69.92
69524;BME280;56723;42.694;23.286;2022-10-18T07:46:04;96482.03;;;8.39;66.07
69524;BME280;56723;42.694;23.286;2022-10-18T07:48:31;96477.34;;;8.44;69.98
69524;BME280;56723;42.694;23.286;2022-10-18T07:50:59;96449.38;;;8.38;66.95
69524;BME280;56723;42.694;23.286;2022-10-18T07:53:28;96477.59;;;8.63;65.96
69524;BME280;56723;42.694;23.286;2022-10-18T07:55:59;96441.28;;;8.54;64.80
69524;BME280;56723;42.694;23.286;2022-10-18T07:58:32;96483.44;;;8.99;65.12
69524;BME280;56723;42.694;23.286;2022-10-18T08:01:04;96481.41;;;9.25;62.88
69524;BME280;56723;42.694;23.286;2022-10-18T08:03:32;96483.66;;;9.50;61.02
69524;BME280;56723;42.694;23.286;2022-10-18T08:05:59;96470.53;;;9.74;61.66
69524;BME280;56723;42.694;23.286;2022-10-18T08:08:26;96476.19;;;10.00;58.98
69524;BME280;56723;42.694;23.286;2022-10-18T08:10:54;96471.91;;;10.31;57.34
69524;BME280;56723;42.694;23.286;2022-10-18T08:13:21;96460.25;;;10.46;55.71
69524;BME280;56723;42.694;23.286;2022-10-18T08:15:47;96456.69;;;10.77;54.53
69524;BME280;56723;42.694;23.286;2022-10-18T08:18:14;96456.75;;;10.97;54.31
69524;BME280;56723;42.694;23.286;2022-10-18T08:20:45;96457.94;;;11.42;51.99
69524;BME280;56723;42.694;23.286;2022-10-18T08:23:12;96445.94;;;11.70;50.93
69524;BME280;56723;42.694;23.286;2022-10-18T08:25:40;96445.69;;;12.02;51.72
69524;BME280;56723;42.694;23.286;2022-10-18T08:28:07;96443.00;;;12.31;52.73
69524;BME280;56723;42.694;23.286;2022-10-18T08:30:34;96438.78;;;12.67;48.93
69524;BME280;56723;42.694;23.286;2022-10-18T08:33:02;96429.94;;;12.88;52.57
69524;BME280;56723;42.694;23.286;2022-10-18T08:35:30;96421.78;;;13.00;47.40
69524;BME280;56723;42.694;23.286;2022-10-18T08:37:57;96420.59;;;12.95;47.98
69524;BME280;56723;42.694;23.286;2022-10-18T08:40:26;96414.38;;;13.05;46.82
69524;BME280;56723;42.694;23.286;2022-10-18T08:43:02;96407.84;;;13.19;46.16
69524;BME280;56723;42.694;23.286;2022-10-18T08:45:36;96399.03;;;13.30;45.58
69524;BME280;56723;42.694;23.286;2022-10-18T08:48:17;96407.88;;;13.55;46.20
69524;BME280;56723;42.694;23.286;2022-10-18T08:50:48;96379.72;;;13.76;44.61
69524;BME280;56723;42.694;23.286;2022-10-18T08:53:33;96387.63;;;13.84;44.16
69524;BME280;56723;42.694;23.286;2022-10-18T08:56:15;96383.53;;;13.81;43.98
69524;BME280;56723;42.694;23.286;2022-10-18T08:58:47;96379.22;;;13.90;45.63
69524;BME280;56723;42.694;23.286;2022-10-18T09:06:48;96378.31;;;14.33;43.44
69524;BME280;56723;42.694;23.286;2022-10-18T09:17:39;96371.22;;;14.85;41.45
69524;BME280;56723;42.694;23.286;2022-10-18T09:26:13;96364.34;;;14.76;42.78
69524;BME280;56723;42.694;23.286;2022-10-18T09:31:45;96354.38;;;15.30;40.84
69524;BME280;56723;42.694;23.286;2022-10-18T09:34:34;96355.69;;;15.50;42.34
69524;BME280;56723;42.694;23.286;2022-10-18T09:37:03;96347.88;;;15.67;41.49
69524;BME280;56723;42.694;23.286;2022-10-18T09:39:34;96355.38;;;15.86;39.46
69524;BME280;56723;42.694;23.286;2022-10-18T09:42:17;96352.91;;;16.01;39.89
69524;BME280;56723;42.694;23.286;2022-10-18T09:45:02;96342.25;;;16.26;38.86
69524;BME280;56723;42.694;23.286;2022-10-18T09:47:37;96345.78;;;16.42;38.32
69524;BME280;56723;42.694;23.286;2022-10-18T09:50:22;96336.13;;;16.42;38.34
69524;BME280;56723;42.694;23.286;2022-10-18T09:55:59;96340.63;;;17.04;38.36
69524;BME280;56723;42.694;23.286;2022-10-18T09:58:42;96326.38;;;17.29;37.94
69524;BME280;56723;42.694;23.286;2022-10-18T10:01:13;96331.09;;;17.56;36.48
69524;BME280;56723;42.694;23.286;2022-10-18T10:03:41;96317.81;;;17.81;35.80
69524;BME280;56723;42.694;23.286;2022-10-18T10:06:29;96306.88;;;17.92;35.03
69524;BME280;56723;42.694;23.286;2022-10-18T10:09:12;96302.72;;;17.97;34.96
69524;BME280;56723;42.694;23.286;2022-10-18T10:11:43;96299.19;;;18.05;35.28
69524;BME280;56723;42.694;23.286;2022-10-18T10:14:14;96293.25;;;18.11;35.92
69524;BME280;56723;42.694;23.286;2022-10-18T10:17:04;96284.09;;;18.22;34.37
69524;BME280;56723;42.694;23.286;2022-10-18T10:19:51;96276.28;;;18.43;34.14
69524;BME280;56723;42.694;23.286;2022-10-18T10:22:37;96265.06;;;18.64;35.89
69524;BME280;56723;42.694;23.286;2022-10-18T10:25:05;96265.53;;;18.53;34.15
69524;BME280;56723;42.694;23.286;2022-10-18T10:27:42;96257.84;;;18.51;35.63
69524;BME280;56723;42.694;23.286;2022-10-18T10:30:36;96251.09;;;18.99;33.87
69524;BME280;56723;42.694;23.286;2022-10-18T10:33:05;96242.59;;;19.19;34.22
69524;BME280;56723;42.694;23.286;2022-10-18T10:35:33;96249.19;;;19.29;32.89
69524;BME280;56723;42.694;23.286;2022-10-18T10:38:27;96240.47;;;19.29;32.91
69524;BME280;56723;42.694;23.286;2022-10-18T10:40:55;96233.53;;;19.21;32.73
69524;BME280;56723;42.694;23.286;2022-10-18T10:43:36;96224.19;;;19.19;33.03
69524;BME280;56723;42.694;23.286;2022-10-18T10:46:08;96216.03;;;19.35;33.81
69524;BME280;56723;42.694;23.286;2022-10-18T10:48:50;96214.47;;;19.62;32.40
69524;BME280;56723;42.694;23.286;2022-10-18T10:51:39;96214.09;;;19.65;33.18
69524;BME280;56723;42.694;23.286;2022-10-18T10:54:16;96195.19;;;19.89;33.27
69524;BME280;56723;42.694;23.286;2022-10-18T10:59:21;96189.38;;;20.42;31.18
69524;BME280;56723;42.694;23.286;2022-10-18T11:04:50;96174.75;;;21.13;29.93
69524;BME280;56723;42.694;23.286;2022-10-18T11:07:34;96172.13;;;21.39;29.82
69524;BME280;56723;42.694;23.286;2022-10-18T11:10:27;96173.75;;;21.47;30.06
69524;BME280;56723;42.694;23.286;2022-10-18T11:15:57;96164.22;;;21.39;28.24
69524;BME280;56723;42.694;23.286;2022-10-18T11:18:32;96156.28;;;21.13;27.84
69524;BME280;56723;42.694;23.286;2022-10-18T11:23:36;96148.34;;;20.80;28.45
69524;BME280;56723;42.694;23.286;2022-10-18T11:29:11;96134.78;;;20.90;28.83
69524;BME280;56723;42.694;23.286;2022-10-18T11:34:38;96128.06;;;21.60;26.42
69524;BME280;56723;42.694;23.286;2022-10-18T11:43:25;96086.97;;;22.03;24.34
69524;BME280;56723;42.694;23.286;2022-10-18T11:48:53;96089.81;;;22.40;23.73
69524;BME280;56723;42.694;23.286;2022-10-18T12:05:20;96070.72;;;22.00;22.57
69524;BME280;56723;42.694;23.286;2022-10-18T12:08:15;96064.34;;;22.14;21.83
69524;BME280;56723;42.694;23.286;2022-10-18T12:10:48;96046.25;;;22.24;21.88
69524;BME280;56723;42.694;23.286;2022-10-18T12:13:43;96051.00;;;22.40;21.24
69524;BME280;56723;42.694;23.286;2022-10-18T12:16:14;96049.97;;;22.41;20.99
69524;BME280;56723;42.694;23.286;2022-10-18T12:18:54;96049.72;;;22.50;20.13
69524;BME280;56723;42.694;23.286;2022-10-18T12:21:24;96019.47;;;22.45;20.02
69524;BME280;56723;42.694;23.286;2022-10-18T12:26:22;96031.88;;;22.70;19.73
69524;BME280;56723;42.694;23.286;2022-10-18T12:32:02;96016.03;;;22.70;19.16
69524;BME280;56723;42.694;23.286;2022-10-18T12:34:35;96018.06;;;22.68;19.21
69524;BME280;56723;42.694;23.286;2022-10-18T12:39:43;96011.16;;;22.67;18.28
69524;BME280;56723;42.694;23.286;2022-10-18T12:42:33;96000.81;;;22.65;19.06
69524;BME280;56723;42.694;23.286;2022-10-18T12:45:29;96005.81;;;22.80;18.18
69524;BME280;56723;42.694;23.286;2022-10-18T12:48:04;96002.75;;;22.76;18.61
69524;BME280;56723;42.694;23.286;2022-10-18T12:50:36;96005.34;;;22.83;18.03
69524;BME280;56723;42.694;23.286;2022-10-18T12:53:18;95991.28;;;22.89;17.36
69524;BME280;56723;42.694;23.286;2022-10-18T12:55:50;95992.31;;;22.88;18.06
69524;BME280;56723;42.694;23.286;2022-10-18T12:58:27;95987.75;;;22.77;17.00
69524;BME280;56723;42.694;23.286;2022-10-18T13:00:56;95985.56;;;22.67;17.93
69524;BME280;56723;42.694;23.286;2022-10-18T13:05:58;95991.59;;;22.81;17.86
69524;BME280;56723;42.694;23.286;2022-10-18T13:19:06;95966.09;;;23.05;17.09
69524;BME280;56723;42.694;23.286;2022-10-18T13:24:32;95963.47;;;23.60;16.81
69524;BME280;56723;42.694;23.286;2022-10-18T13:27:18;95950.81;;;23.62;16.23
69524;BME280;56723;42.694;23.286;2022-10-18T13:35:43;95961.03;;;23.22;16.44
69524;BME280;56723;42.694;23.286;2022-10-18T13:38:36;95939.16;;;23.14;16.95
69524;BME280;56723;42.694;23.286;2022-10-18T13:41:07;95946.72;;;23.11;16.33
69524;BME280;56723;42.694;23.286;2022-10-18T14:06:10;95929.41;;;23.15;16.26
69524;BME280;56723;42.694;23.286;2022-10-18T14:11:33;95903.59;;;23.29;16.16
69524;BME280;56723;42.694;23.286;2022-10-18T14:17:02;95924.59;;;23.60;16.45
69524;BME280;56723;42.694;23.286;2022-10-18T14:19:53;95917.66;;;23.59;16.52
69524;BME280;56723;42.694;23.286;2022-10-18T14:22:35;95921.28;;;23.65;16.69
69524;BME280;56723;42.694;23.286;2022-10-18T14:25:02;95912.69;;;23.81;17.09
69524;BME280;56723;42.694;23.286;2022-10-18T14:27:31;95912.88;;;24.09;16.11
69524;BME280;56723;42.694;23.286;2022-10-18T14:30:19;95907.75;;;23.85;16.02
69524;BME280;56723;42.694;23.286;2022-10-18T14:32:48;95907.69;;;23.61;16.17
69524;BME280;56723;42.694;23.286;2022-10-18T14:35:21;95905.19;;;23.48;16.39
69524;BME280;56723;42.694;23.286;2022-10-18T14:38:04;95907.56;;;23.56;16.47
69524;BME280;56723;42.694;23.286;2022-10-18T14:40:37;95900.75;;;23.60;16.40
69524;BME280;56723;42.694;23.286;2022-10-18T14:45:39;95896.13;;;23.86;16.13
69524;BME280;56723;42.694;23.286;2022-10-18T14:48:16;95894.94;;;23.70;16.19
69524;BME280;56723;42.694;23.286;2022-10-18T14:50:45;95884.25;;;23.46;16.38
69524;BME280;56723;42.694;23.286;2022-10-18T14:53:19;95883.78;;;23.20;17.12
69524;BME280;56723;42.694;23.286;2022-10-18T14:55:59;95891.69;;;22.65;17.44
69524;BME280;56723;42.694;23.286;2022-10-18T14:58:27;95892.69;;;21.96;17.83
69524;BME280;56723;42.694;23.286;2022-10-18T15:00:55;95896.25;;;21.45;18.13
69524;BME280;56723;42.694;23.286;2022-10-18T15:03:25;95891.75;;;21.07;18.49
69524;BME280;56723;42.694;23.286;2022-10-18T15:05:58;95882.34;;;20.67;18.82
69524;BME280;56723;42.694;23.286;2022-10-18T15:08:35;95883.63;;;20.38;19.00
69524;BME280;56723;42.694;23.286;2022-10-18T15:11:03;95885.22;;;20.13;19.58
69524;BME280;56723;42.694;23.286;2022-10-18T15:13:40;95872.66;;;19.88;19.77
69524;BME280;56723;42.694;23.286;2022-10-18T15:16:17;95887.63;;;19.61;21.16
69524;BME280;56723;42.694;23.286;2022-10-18T15:25:11;95885.81;;;18.60;23.65
69524;BME280;56723;42.694;23.286;2022-10-18T15:27:45;95881.50;;;18.52;24.62
69524;BME280;56723;42.694;23.286;2022-10-18T15:30:25;95880.19;;;18.35;24.38
69524;BME280;56723;42.694;23.286;2022-10-18T15:32:59;95887.28;;;18.13;25.35
69524;BME280;56723;42.694;23.286;2022-10-18T15:35:32;95876.59;;;17.87;25.13
69524;BME280;56723;42.694;23.286;2022-10-18T15:38:25;95888.97;;;17.72;26.13
69524;BME280;56723;42.694;23.286;2022-10-18T15:40:53;95875.09;;;17.56;25.45
69524;BME280;56723;42.694;23.286;2022-10-18T15:45:56;95883.56;;;17.37;25.98
69524;BME280;56723;42.694;23.286;2022-10-18T15:48:38;95888.09;;;17.28;26.71